Dobrodošli na spletni strani vremenske postaje Senovo. Vse informacije so informativnega značaja, saj vremenska postaja ni del državne mreže meteoroloških postaj. AKTUALNIH OBVESTIL NI.


Sneg/Led Od: 21-02-2018 00:00 Do: 23-02-2018 23:59 Opozorilo za: Sneg/Led Stopnja: Rumena info button
Veter Od: 21-02-2018 00:00 Do: 22-02-2018 23:59 Opozorilo za: Veter Stopnja: Rumena info button

Pogled proti Armezu več informacij Pogled proti Armezu


Lisca več informacij Lisca


Radar strel več informacij blitzortung!


opozorilo za sneg/led več informacij rain snow radar


Obiščite še:

Template documentation
and downloads

And another site



Weather Underground, zgodovina - Tekstovno

Dnevni povzetek za Januar 19, 2018 Enote:  Angleško    Metrično   Obe
« Predhodni Dan
Naslednji Dan »
Dnevni Tedenski Mesečni Letni Po meri
  Višja: Nižja: Povprečje:
Temperatura: TemperatureC °F 2.5 °F 5 °F
Točka rosišča: DewpointC °F -0.6 °F 2.2 °F
Vlažnost: Humidity % 59 % 82 %
Hitrost vetra: WindSpeedKMH mph 0.0 mph 2.2 mph
Sunki vetra: WindSpeedGustKMH mph - -
Veter:- - SW
Zračni tlak: PressurehPa in 1002.9 in -
Padavine: 14.0 in    
Historical Graphs
 
 
Tabelarni podarki za Januar 19, 2018
Čas Temperatura Točka rosišča Zračni tlak Veter Hitrost vetra Sunki vetra Vlažnost Intenziteta padavin (urna)
TemperatureC °F DewpointC °F PressurehPa in Calm     Humidity % HourlyPrecipMM in
00:04 7.0 °F 0.0 °F 1003.9 in SW 7.2 mph 12.6 mph 61 % 0.0 in
00:09 7.0 °F 0.0 °F 1003.9 in SSW 7.2 mph 12.2 mph 61 % 0.0 in
00:14 6.8 °F -0.2 °F 1003.9 in SSW 6.9 mph 11.6 mph 61 % 0.0 in
00:19 6.8 °F -0.2 °F 1003.9 in South 6.3 mph 12.6 mph 61 % 0.0 in
00:24 6.7 °F -0.3 °F 1003.9 in SSW 6.8 mph 12.6 mph 61 % 0.0 in
00:29 6.7 °F -0.3 °F 1005.0 in SW 6.1 mph 11.9 mph 61 % 0.0 in
00:34 6.5 °F -0.5 °F 1005.0 in SW 3.4 mph 6.9 mph 61 % 0.0 in
00:39 6.5 °F -0.5 °F 1005.0 in NE 1.9 mph 5.0 mph 61 % 0.0 in
00:44 6.4 °F -0.6 °F 1005.0 in West 2.6 mph 9.0 mph 61 % 0.0 in
00:49 6.5 °F -0.5 °F 1005.0 in West 4.0 mph 9.3 mph 61 % 0.0 in
00:54 6.7 °F -0.1 °F 1005.0 in West 5.1 mph 9.3 mph 62 % 0.0 in
00:59 6.8 °F 0.0 °F 1005.0 in West 4.2 mph 9.0 mph 62 % 0.0 in
01:04 7.0 °F 0.2 °F 1005.0 in WSW 3.7 mph 9.7 mph 62 % 0.0 in
01:09 7.1 °F 0.3 °F 1005.0 in WSW 5.1 mph 12.2 mph 62 % 0.0 in
01:14 7.3 °F 0.5 °F 1003.9 in West 5.6 mph 12.2 mph 62 % 0.0 in
01:19 7.4 °F 0.6 °F 1003.9 in WSW 5.5 mph 10.5 mph 62 % 0.0 in
01:24 7.4 °F 0.4 °F 1003.9 in WSW 5.6 mph 14.0 mph 61 % 0.0 in
01:29 7.5 °F 0.4 °F 1003.9 in WSW 5.3 mph 14.0 mph 61 % 0.0 in
01:34 7.6 °F 0.6 °F 1003.9 in WSW 5.6 mph 13.0 mph 61 % 0.0 in
01:39 7.6 °F 0.6 °F 1003.9 in SW 6.3 mph 13.0 mph 61 % 0.0 in
01:44 7.7 °F 0.7 °F 1003.9 in SW 6.8 mph 15.4 mph 61 % 0.0 in
01:49 7.8 °F 0.7 °F 1003.9 in WSW 6.6 mph 15.4 mph 61 % 0.0 in
01:54 7.8 °F 0.7 °F 1003.9 in WSW 5.3 mph 11.6 mph 61 % 0.0 in
01:59 7.9 °F 0.6 °F 1002.9 in West 5.1 mph 11.6 mph 60 % 0.0 in
02:04 7.9 °F 0.6 °F 1002.9 in WSW 6.0 mph 11.6 mph 60 % 0.0 in
02:09 8.0 °F 0.7 °F 1002.9 in SW 5.5 mph 11.6 mph 60 % 0.0 in
02:14 8.2 °F 0.9 °F 1003.9 in SW 5.0 mph 9.3 mph 60 % 0.0 in
02:19 8.2 °F 0.9 °F 1003.9 in SW 4.8 mph 9.3 mph 60 % 0.0 in
02:24 8.2 °F 0.9 °F 1003.9 in SSW 4.8 mph 7.6 mph 60 % 0.0 in
02:29 8.1 °F 0.6 °F 1003.9 in SSW 4.8 mph 11.9 mph 59 % 0.0 in
02:34 8.1 °F 0.6 °F 1003.9 in SSW 3.5 mph 11.9 mph 59 % 0.0 in
02:39 8.0 °F 0.4 °F 1003.9 in SSW 2.7 mph 6.1 mph 59 % 0.0 in
02:44 7.9 °F 0.6 °F 1003.9 in South 1.8 mph 5.5 mph 60 % 0.0 in
02:49 7.8 °F 0.5 °F 1003.9 in SSW 2.4 mph 7.6 mph 60 % 0.0 in
02:54 7.8 °F 0.5 °F 1003.9 in SSW 3.9 mph 7.6 mph 60 % 0.0 in
02:59 7.7 °F 0.4 °F 1003.9 in South 4.0 mph 6.1 mph 60 % 0.0 in
03:04 7.7 °F 0.4 °F 1003.9 in South 3.9 mph 6.1 mph 60 % 0.0 in
03:09 7.6 °F 0.3 °F 1003.9 in South 2.7 mph 5.8 mph 60 % 0.0 in
03:14 7.6 °F 0.3 °F 1003.9 in SSW 1.9 mph 5.8 mph 60 % 0.0 in
03:19 7.4 °F 0.1 °F 1003.9 in WSW 1.0 mph 4.0 mph 60 % 0.0 in
03:24 7.2 °F -0.1 °F 1003.9 in NW 0.5 mph 4.0 mph 60 % 0.0 in
03:29 7.0 °F 0.0 °F 1003.9 in WNW 1.1 mph 4.7 mph 61 % 0.0 in
03:34 6.7 °F -0.3 °F 1003.9 in WNW 1.3 mph 5.0 mph 61 % 0.0 in
03:39 6.7 °F -0.3 °F 1003.9 in NW 1.0 mph 5.0 mph 61 % 0.0 in
03:44 6.5 °F -0.3 °F 1002.9 in NW 0.5 mph 2.6 mph 62 % 0.0 in
03:49 6.3 °F -0.4 °F 1002.9 in Calm     62 % 0.0 in
03:54 6.2 °F -0.3 °F 1002.9 in Calm     63 % 0.0 in
03:59 6.1 °F -0.4 °F 1002.9 in Calm     63 % 0.0 in
04:04 6.0 °F -0.3 °F 1002.9 in Calm     64 % 0.0 in
04:09 5.8 °F -0.3 °F 1002.9 in Calm     65 % 0.0 in
04:14 5.7 °F -0.4 °F 1003.9 in NNW 0.3 mph 4.0 mph 65 % 0.0 in
04:19 5.7 °F -0.2 °F 1003.9 in NW 1.0 mph 4.3 mph 66 % 0.0 in
04:24 5.6 °F -0.1 °F 1003.9 in NW 0.6 mph 4.3 mph 67 % 0.0 in
04:29 5.6 °F -0.1 °F 1003.9 in Calm     67 % 0.0 in
04:34 5.6 °F 0.2 °F 1003.9 in Calm     68 % 0.0 in
04:39 5.6 °F 0.2 °F 1003.9 in Calm   2.6 mph 68 % 0.0 in
04:44 5.5 °F 0.3 °F 1003.9 in Calm   2.6 mph 69 % 0.0 in
04:49 5.5 °F 0.3 °F 1003.9 in NW 1.4 mph 4.7 mph 69 % 0.0 in
04:54 5.5 °F 0.3 °F 1003.9 in NW 2.6 mph 4.7 mph 69 % 0.0 in
04:59 5.4 °F 0.4 °F 1005.0 in NW 1.1 mph 4.7 mph 70 % 0.0 in
05:04 5.4 °F 0.4 °F 1005.0 in Calm     70 % 0.0 in
05:09 5.4 °F 0.6 °F 1005.0 in Calm     71 % 0.0 in
05:14 5.4 °F 0.6 °F 1005.0 in Calm     71 % 0.0 in
05:19 5.3 °F 0.4 °F 1005.0 in Calm     71 % 0.0 in
05:24 5.3 °F 0.7 °F 1005.0 in Calm     72 % 0.0 in
05:29 5.3 °F 0.7 °F 1005.0 in WNW 0.5 mph 3.5 mph 72 % 0.0 in
05:34 5.3 °F 0.8 °F 1005.0 in NW 0.8 mph 3.5 mph 73 % 0.0 in
05:39 5.2 °F 0.8 °F 1005.0 in NNE 0.3 mph 3.2 mph 73 % 0.0 in
05:44 5.2 °F 0.8 °F 1005.0 in Calm     73 % 0.0 in
05:49 5.2 °F 0.9 °F 1005.0 in Calm     74 % 0.0 in
05:54 5.2 °F 0.9 °F 1005.0 in Calm     74 % 0.0 in
05:59 5.2 °F 0.9 °F 1005.0 in Calm     74 % 0.0 in
06:04 5.2 °F 1.1 °F 1005.0 in Calm     75 % 0.0 in
06:09 5.1 °F 1.1 °F 1005.0 in Calm     75 % 0.0 in
06:14 5.1 °F 1.1 °F 1003.9 in Calm     75 % 0.0 in
06:19 5.1 °F 1.2 °F 1003.9 in Calm     76 % 0.0 in
06:24 5.1 °F 1.2 °F 1003.9 in Calm     76 % 0.0 in
06:29 5.1 °F 1.2 °F 1003.9 in Calm     76 % 0.0 in
06:34 5.1 °F 1.4 °F 1003.9 in Calm     77 % 0.0 in
06:39 5.1 °F 1.4 °F 1003.9 in Calm     77 % 0.0 in
06:44 5.1 °F 1.4 °F 1005.0 in Calm     77 % 0.3 in
06:49 5.1 °F 1.4 °F 1005.0 in West 0.6 mph 4.0 mph 77 % 0.3 in
06:54 5.1 °F 1.6 °F 1005.0 in WSW 1.3 mph 4.0 mph 78 % 0.3 in
06:59 5.1 °F 1.6 °F 1003.9 in SW 0.6 mph 3.5 mph 78 % 0.3 in
07:04 5.1 °F 1.8 °F 1003.9 in Calm     79 % 0.3 in
07:10 5.1 °F 1.8 °F 1003.9 in NW 0.3 mph 4.0 mph 79 % 0.3 in
07:14 5.1 °F 1.9 °F 1003.9 in NW 0.3 mph 4.0 mph 80 % 0.3 in
07:20 5.1 °F 1.9 °F 1003.9 in Calm     80 % 0.3 in
07:25 5.1 °F 1.9 °F 1003.9 in Calm     80 % 0.3 in
07:30 5.1 °F 2.1 °F 1003.9 in Calm     81 % 0.3 in
07:35 5.1 °F 2.1 °F 1003.9 in Calm     81 % 0.3 in
07:40 5.1 °F 2.1 °F 1003.9 in Calm     81 % 0.5 in
07:45 5.1 °F 2.3 °F 1005.0 in Calm     82 % 0.3 in
07:50 5.1 °F 2.3 °F 1005.0 in Calm     82 % 0.3 in
07:55 5.1 °F 2.3 °F 1005.0 in West 1.4 mph 4.7 mph 82 % 0.5 in
08:00 5.2 °F 2.6 °F 1005.0 in WNW 2.7 mph 4.7 mph 83 % 0.5 in
08:05 5.2 °F 2.6 °F 1005.0 in NW 1.8 mph 4.7 mph 83 % 0.5 in
08:10 5.3 °F 2.8 °F 1005.0 in NW 0.5 mph 4.3 mph 84 % 0.8 in
08:15 5.3 °F 2.8 °F 1005.0 in Calm     84 % 0.8 in
08:20 5.3 °F 2.8 °F 1005.0 in Calm     84 % 0.8 in
08:25 5.3 °F 3.0 °F 1005.0 in Calm     85 % 1.0 in
08:30 5.4 °F 3.1 °F 1006.0 in Calm     85 % 1.0 in
08:35 5.4 °F 3.1 °F 1006.0 in Calm     85 % 1.0 in
08:40 5.4 °F 3.1 °F 1006.0 in Calm     85 % 1.0 in
08:45 5.4 °F 3.2 °F 1006.0 in Calm     86 % 1.0 in
08:50 5.5 °F 3.3 °F 1006.0 in Calm     86 % 1.0 in
08:55 5.5 °F 3.3 °F 1006.0 in Calm     86 % 1.0 in
09:00 5.6 °F 3.4 °F 1006.0 in Calm   1.4 mph 86 % 1.0 in
09:05 5.6 °F 3.6 °F 1006.0 in Calm   1.4 mph 87 % 1.0 in
09:10 5.6 °F 3.6 °F 1006.0 in Calm     87 % 0.8 in
09:15 5.7 °F 3.7 °F 1006.0 in Calm     87 % 0.8 in
09:20 5.8 °F 3.8 °F 1006.0 in Calm     87 % 0.8 in
09:25 5.8 °F 3.8 °F 1006.0 in Calm     87 % 0.5 in
09:30 5.9 °F 4.1 °F 1006.0 in Calm     88 % 0.5 in
09:35 6.0 °F 4.0 °F 1006.0 in Calm     87 % 0.8 in
09:40 6.1 °F 4.3 °F 1006.0 in Calm     88 % 0.8 in
09:45 6.3 °F 4.4 °F 1005.0 in Calm     88 % 0.8 in
09:50 6.4 °F 4.6 °F 1005.0 in Calm     88 % 0.8 in
09:55 6.5 °F 4.8 °F 1005.0 in Calm     89 % 0.8 in
10:00 6.5 °F 4.8 °F 1006.0 in Calm     89 % 0.8 in
10:05 6.6 °F 4.9 °F 1006.0 in Calm     89 % 0.5 in
10:10 6.8 °F 5.3 °F 1006.0 in Calm     90 % 0.5 in
10:15 6.9 °F 5.4 °F 1006.0 in Calm     90 % 0.3 in
10:20 7.0 °F 5.4 °F 1006.0 in Calm     90 % 0.3 in
10:25 7.1 °F 5.6 °F 1006.0 in Calm     90 % 0.5 in
10:31 7.1 °F 5.6 °F 1007.0 in Calm     90 % 0.3 in
10:36 7.2 °F 5.7 °F 1007.0 in Calm     90 % 0.3 in
10:41 7.2 °F 5.8 °F 1007.0 in Calm     91 % 0.3 in
10:46 7.3 °F 5.9 °F 1007.0 in Calm     91 % 0.3 in
10:51 7.3 °F 5.9 °F 1007.0 in Calm     91 % 0.3 in
10:56 7.4 °F 6.0 °F 1007.0 in Calm     91 % 0.3 in
11:01 7.4 °F 6.0 °F 1007.0 in Calm     91 % 0.5 in
11:06 7.4 °F 6.0 °F 1007.0 in Calm     91 % 0.5 in
11:11 7.4 °F 6.0 °F 1007.0 in Calm     91 % 0.5 in
11:16 7.4 °F 6.0 °F 1007.0 in Calm     91 % 0.5 in
11:21 7.5 °F 6.1 °F 1007.0 in Calm     91 % 0.8 in
11:26 7.5 °F 6.1 °F 1007.0 in Calm     91 % 0.8 in
11:31 7.5 °F 6.1 °F 1006.0 in Calm     91 % 0.8 in
11:36 7.5 °F 6.3 °F 1006.0 in Calm     92 % 0.8 in
11:41 7.5 °F 6.3 °F 1006.0 in Calm   2.1 mph 92 % 0.8 in
11:46 7.5 °F 6.3 °F 1006.0 in Calm   2.1 mph 92 % 0.8 in
11:51 7.5 °F 6.3 °F 1006.0 in Calm     92 % 1.0 in
11:56 7.4 °F 6.2 °F 1006.0 in Calm     92 % 1.0 in
12:01 7.4 °F 6.2 °F 1007.0 in Calm     92 % 1.0 in
12:06 7.4 °F 6.2 °F 1007.0 in Calm     92 % 1.0 in
12:11 7.5 °F 6.3 °F 1007.0 in Calm     92 % 1.0 in
12:16 7.5 °F 6.3 °F 1007.0 in Calm     92 % 1.3 in
12:21 7.5 °F 6.3 °F 1007.0 in Calm     92 % 1.3 in
12:26 7.4 °F 6.2 °F 1007.0 in Calm     92 % 1.3 in
12:31 7.5 °F 6.3 °F 1007.0 in Calm     92 % 1.5 in
12:36 7.4 °F 6.2 °F 1007.0 in Calm     92 % 1.8 in
12:41 7.4 °F 6.2 °F 1007.0 in Calm     92 % 1.8 in
12:46 7.5 °F 6.3 °F 1007.0 in Calm     92 % 1.8 in
12:51 7.5 °F 6.3 °F 1007.0 in Calm     92 % 1.8 in
12:56 7.5 °F 6.3 °F 1007.0 in SW 0.3 mph 2.6 mph 92 % 2.0 in
13:01 7.5 °F 6.3 °F 1007.0 in SSW 0.8 mph 4.3 mph 92 % 2.0 in
13:06 7.5 °F 6.3 °F 1007.0 in South 0.3 mph 4.3 mph 92 % 2.0 in
13:11 7.5 °F 6.3 °F 1007.0 in Calm     92 % 1.8 in
13:16 7.5 °F 6.4 °F 1007.0 in West 1.0 mph 6.4 mph 93 % 1.8 in
13:21 7.5 °F 6.3 °F 1007.0 in West 2.6 mph 7.6 mph 92 % 1.8 in
13:26 7.4 °F 6.2 °F 1006.0 in SSW 3.2 mph 10.1 mph 92 % 2.0 in
13:31 7.3 °F 6.1 °F 1006.0 in ESE 5.8 mph 16.9 mph 92 % 1.8 in
13:36 7.0 °F 5.8 °F 1006.0 in East 7.4 mph 16.9 mph 92 % 1.8 in
13:41 6.8 °F 5.6 °F 1007.0 in East 5.5 mph 10.5 mph 92 % 1.8 in
13:46 6.7 °F 5.5 °F 1007.0 in SE 4.7 mph 7.9 mph 92 % 1.8 in
13:51 6.3 °F 4.9 °F 1007.0 in East 6.4 mph 16.3 mph 91 % 1.8 in
13:56 6.0 °F 4.7 °F 1007.0 in East 8.8 mph 26.2 mph 91 % 2.3 in
14:01 5.7 °F 4.2 °F 1007.0 in ENE 9.2 mph 26.2 mph 90 % 2.3 in
14:06 5.6 °F 4.1 °F 1007.0 in NNE 6.1 mph 15.4 mph 90 % 2.3 in
14:11 5.3 °F 3.6 °F 1008.0 in WNW 3.4 mph 11.9 mph 89 % 2.5 in
14:16 5.1 °F 3.4 °F 1008.0 in WNW 2.4 mph 5.8 mph 89 % 2.8 in
14:21 5.0 °F 3.2 °F 1008.0 in ENE 2.3 mph 5.8 mph 88 % 3.0 in
14:26 4.8 °F 3.0 °F 1009.0 in ESE 2.9 mph 13.0 mph 88 % 3.0 in
14:31 4.7 °F 2.9 °F 1009.0 in ESE 6.3 mph 13.0 mph 88 % 3.6 in
14:36 4.6 °F 2.8 °F 1009.0 in ESE 8.7 mph 13.0 mph 88 % 3.8 in
14:41 4.4 °F 2.6 °F 1009.0 in ESE 7.9 mph 13.0 mph 88 % 3.8 in
14:46 4.4 °F 2.6 °F 1009.0 in ESE 7.4 mph 12.6 mph 88 % 3.8 in
14:51 4.4 °F 2.6 °F 1009.0 in ESE 7.4 mph 12.6 mph 88 % 3.6 in
14:56 4.3 °F 2.3 °F 1009.0 in SE 7.9 mph 11.9 mph 87 % 3.6 in
15:01 4.3 °F 2.3 °F 1009.0 in ESE 6.9 mph 11.9 mph 87 % 3.6 in
15:06 4.2 °F 2.2 °F 1009.0 in ESE 5.1 mph 7.9 mph 87 % 3.6 in
15:11 4.1 °F 2.1 °F 1009.0 in SE 5.8 mph 10.8 mph 87 % 3.3 in
15:16 4.0 °F 2.1 °F 1009.0 in SE 6.9 mph 13.7 mph 87 % 3.3 in
15:21 3.9 °F 2.1 °F 1009.0 in ESE 7.6 mph 13.7 mph 88 % 3.0 in
15:26 3.8 °F 1.8 °F 1008.0 in ESE 7.2 mph 12.2 mph 87 % 2.8 in
15:31 3.7 °F 1.7 °F 1008.0 in SE 6.1 mph 12.2 mph 87 % 2.3 in
15:36 3.7 °F 1.7 °F 1008.0 in SSE 6.8 mph 16.3 mph 87 % 2.3 in
15:41 3.6 °F 1.6 °F 1009.0 in South 8.0 mph 16.3 mph 87 % 2.3 in
15:46 3.5 °F 1.6 °F 1009.0 in South 8.2 mph 13.7 mph 87 % 2.0 in
15:51 3.4 °F 1.4 °F 1009.0 in South 8.4 mph 13.7 mph 87 % 2.0 in
15:56 3.4 °F 1.4 °F 1009.0 in SSE 8.2 mph 15.8 mph 87 % 1.8 in
16:01 3.3 °F 1.3 °F 1009.0 in South 9.0 mph 15.8 mph 87 % 1.8 in
16:06 3.3 °F 1.3 °F 1009.0 in South 9.7 mph 13.7 mph 87 % 1.5 in
16:11 3.3 °F 1.3 °F 1009.0 in South 8.5 mph 15.8 mph 87 % 1.5 in
16:16 3.3 °F 1.3 °F 1009.0 in SE 5.6 mph 15.8 mph 87 % 1.5 in
16:21 3.3 °F 1.5 °F 1009.0 in SSE 6.0 mph 15.4 mph 88 % 1.3 in
16:26 3.3 °F 1.5 °F 1009.0 in SSE 7.9 mph 15.4 mph 88 % 1.5 in
16:31 3.2 °F 1.4 °F 1009.0 in SE 7.9 mph 13.0 mph 88 % 1.3 in
16:36 3.2 °F 1.4 °F 1009.0 in SSE 7.9 mph 13.0 mph 88 % 1.0 in
16:41 3.1 °F 1.3 °F 1010.0 in South 6.9 mph 11.6 mph 88 % 1.0 in
16:46 3.1 °F 1.3 °F 1010.0 in SE 5.6 mph 11.6 mph 88 % 1.0 in
16:51 3.1 °F 1.3 °F 1010.0 in SSE 5.0 mph 10.1 mph 88 % 0.8 in
16:56 3.0 °F 1.2 °F 1010.0 in South 4.5 mph 10.1 mph 88 % 0.8 in
17:01 3.0 °F 1.2 °F 1010.0 in South 3.5 mph 7.6 mph 88 % 0.5 in
17:06 3.0 °F 1.2 °F 1010.0 in SSW 4.3 mph 7.9 mph 88 % 0.5 in
17:11 3.0 °F 1.2 °F 1011.1 in SW 5.1 mph 7.9 mph 88 % 0.3 in
17:16 2.9 °F 1.1 °F 1011.1 in WSW 3.2 mph 6.9 mph 88 % 0.3 in
17:21 2.9 °F 1.1 °F 1011.1 in SSW 0.6 mph 3.2 mph 88 % 0.5 in
17:26 2.9 °F 1.3 °F 1011.1 in WSW 1.0 mph 4.7 mph 89 % 0.3 in
17:31 2.8 °F 1.2 °F 1011.1 in WSW 1.4 mph 4.7 mph 89 % 0.3 in
17:36 2.8 °F 1.2 °F 1011.1 in SSW 1.9 mph 5.8 mph 89 % 0.3 in
17:41 2.8 °F 1.2 °F 1011.1 in SW 2.7 mph 5.8 mph 89 % 0.3 in
17:46 2.8 °F 1.2 °F 1011.1 in NW 3.2 mph 8.7 mph 89 % 0.3 in
17:51 2.8 °F 1.2 °F 1011.1 in NW 2.6 mph 8.7 mph 89 % 0.3 in
17:56 2.8 °F 1.2 °F 1011.1 in WSW 0.3 mph 3.2 mph 89 % 0.3 in
18:01 2.8 °F 1.2 °F 1011.1 in West 1.0 mph 5.0 mph 89 % 0.3 in
18:06 2.7 °F 1.1 °F 1011.1 in West 3.1 mph 6.4 mph 89 % 0.3 in
18:12 2.7 °F 1.1 °F 1011.1 in West 2.7 mph 6.4 mph 89 % 0.3 in
18:17 2.7 °F 1.1 °F 1011.1 in WSW 2.3 mph 5.5 mph 89 % 0.3 in
18:22 2.7 °F 1.1 °F 1011.1 in West 2.4 mph 5.5 mph 89 % 0.0 in
18:27 2.8 °F 1.3 °F 1011.1 in NE 1.1 mph 4.7 mph 90 % 0.0 in
18:32 2.8 °F 1.3 °F 1011.1 in SE 2.6 mph 5.8 mph 90 % 0.0 in
18:37 2.8 °F 1.3 °F 1011.1 in ESE 3.1 mph 5.8 mph 90 % 0.0 in
18:42 2.8 °F 1.3 °F 1012.1 in NNW 2.1 mph 4.7 mph 90 % 0.0 in
18:47 2.8 °F 1.3 °F 1012.1 in NW 2.3 mph 4.3 mph 90 % 0.0 in
18:52 2.8 °F 1.3 °F 1012.1 in NW 3.4 mph 6.9 mph 90 % 0.0 in
18:57 2.8 °F 1.5 °F 1011.1 in NW 3.2 mph 6.9 mph 91 % 0.0 in
19:02 2.9 °F 1.6 °F 1011.1 in NW 2.1 mph 6.9 mph 91 % 0.0 in
19:07 2.9 °F 1.6 °F 1011.1 in WNW 2.6 mph 6.9 mph 91 % 0.0 in
19:12 2.9 °F 1.6 °F 1012.1 in WSW 2.3 mph 5.0 mph 91 % 0.0 in
19:17 2.9 °F 1.6 °F 1012.1 in SW 1.1 mph 4.3 mph 91 % 0.0 in
19:22 2.9 °F 1.6 °F 1012.1 in South 0.5 mph 3.2 mph 91 % 0.0 in
19:27 2.9 °F 1.6 °F 1011.1 in Calm     91 % 0.0 in
19:32 2.9 °F 1.6 °F 1011.1 in Calm     91 % 0.0 in
19:37 2.8 °F 1.6 °F 1011.1 in Calm     92 % 0.0 in
19:42 2.8 °F 1.6 °F 1011.1 in Calm     92 % 0.0 in
19:47 2.8 °F 1.6 °F 1011.1 in Calm     92 % 0.0 in
19:52 2.8 °F 1.6 °F 1011.1 in West 1.3 mph 6.4 mph 92 % 0.0 in
19:57 2.8 °F 1.6 °F 1012.1 in West 2.6 mph 6.4 mph 92 % 0.0 in
20:02 2.8 °F 1.6 °F 1012.1 in WNW 2.4 mph 5.8 mph 92 % 0.0 in
20:07 2.7 °F 1.6 °F 1012.1 in West 2.4 mph 5.5 mph 92 % 0.0 in
20:12 2.7 °F 1.6 °F 1011.1 in SW 1.4 mph 4.0 mph 92 % 0.0 in
20:17 2.7 °F 1.6 °F 1011.1 in SW 0.8 mph 4.0 mph 92 % 0.0 in
20:22 2.7 °F 1.6 °F 1011.1 in WSW 1.9 mph 4.7 mph 92 % 0.0 in
20:27 2.7 °F 1.6 °F 1012.1 in SW 4.0 mph 6.9 mph 92 % 0.0 in
20:32 2.7 °F 1.6 °F 1012.1 in SSE 4.7 mph 7.6 mph 92 % 0.0 in
20:37 2.7 °F 1.6 °F 1012.1 in SE 4.0 mph 7.6 mph 92 % 0.0 in
20:42 2.7 °F 1.6 °F 1012.1 in SE 2.4 mph 6.1 mph 92 % 0.0 in
20:47 2.6 °F 1.6 °F 1012.1 in WNW 2.3 mph 5.8 mph 93 % 0.0 in
20:52 2.6 °F 1.6 °F 1012.1 in West 2.1 mph 5.8 mph 93 % 0.0 in
20:57 2.6 °F 1.6 °F 1012.1 in WSW 0.8 mph 3.5 mph 93 % 0.0 in
21:02 2.6 °F 1.6 °F 1012.1 in SSW 0.2 mph 3.2 mph 93 % 0.0 in
21:07 2.5 °F 1.5 °F 1012.1 in SW 1.3 mph 5.0 mph 93 % 0.0 in
21:12 2.5 °F 1.5 °F 1012.1 in SW 1.6 mph 5.0 mph 93 % 0.0 in
21:17 2.5 °F 1.5 °F 1012.1 in SSW 1.8 mph 6.1 mph 93 % 0.0 in
21:22 2.5 °F 1.5 °F 1012.1 in SSW 1.9 mph 6.1 mph 93 % 0.0 in
21:27 2.5 °F 1.5 °F 1013.1 in WSW 0.8 mph 4.3 mph 93 % 0.0 in
21:32 2.5 °F 1.5 °F 1013.1 in SSE 1.1 mph 5.0 mph 93 % 0.0 in
21:37 2.6 °F 1.6 °F 1013.1 in ESE 1.3 mph 5.0 mph 93 % 0.0 in
21:42 2.6 °F 1.6 °F 1013.1 in ESE 0.8 mph 4.0 mph 93 % 0.0 in
21:47 2.6 °F 1.6 °F 1013.1 in WNW 0.6 mph 3.5 mph 93 % 0.0 in
21:52 2.6 °F 1.6 °F 1013.1 in NW 0.8 mph 3.5 mph 93 % 0.0 in
21:57 2.6 °F 1.6 °F 1013.1 in WNW 1.3 mph 5.8 mph 93 % 0.0 in
22:02 2.7 °F 1.7 °F 1013.1 in West 1.1 mph 5.8 mph 93 % 0.0 in
22:07 2.7 °F 1.8 °F 1013.1 in WSW 0.6 mph 3.2 mph 94 % 0.0 in
22:12 2.7 °F 1.8 °F 1014.1 in WSW 0.8 mph 3.2 mph 94 % 0.0 in
22:17 2.7 °F 1.8 °F 1014.1 in West 0.3 mph 2.1 mph 94 % 0.0 in
22:23 2.7 °F 1.8 °F 1014.1 in SW 0.2 mph 2.6 mph 94 % 0.0 in
22:28 2.7 °F 1.8 °F 1013.1 in SW 0.2 mph 2.6 mph 94 % 0.0 in
22:33 2.7 °F 1.8 °F 1013.1 in Calm     94 % 0.0 in
22:38 2.7 °F 1.8 °F 1013.1 in Calm     94 % 0.0 in
22:43 2.7 °F 1.8 °F 1014.1 in Calm     94 % 0.0 in
22:48 2.7 °F 1.8 °F 1014.1 in Calm     94 % 0.0 in
22:53 2.7 °F 1.8 °F 1014.1 in Calm     94 % 0.0 in
22:58 2.7 °F 1.8 °F 1013.1 in Calm     94 % 0.0 in
23:03 2.7 °F 1.8 °F 1013.1 in Calm     94 % 0.0 in
23:08 2.7 °F 1.8 °F 1013.1 in SSW 1.0 mph 4.7 mph 94 % 0.0 in
23:13 2.7 °F 1.8 °F 1012.1 in SSW 2.1 mph 4.7 mph 94 % 0.0 in
23:18 2.7 °F 1.8 °F 1012.1 in South 1.4 mph 4.7 mph 94 % 0.0 in
23:23 2.7 °F 1.8 °F 1012.1 in SSE 0.6 mph 3.5 mph 94 % 0.0 in
23:28 2.7 °F 1.8 °F 1013.1 in South 1.0 mph 4.0 mph 94 % 0.0 in
23:33 2.7 °F 1.8 °F 1013.1 in SSW 1.8 mph 4.3 mph 94 % 0.0 in
23:38 2.7 °F 1.8 °F 1013.1 in South 1.9 mph 6.1 mph 94 % 0.0 in
23:43 2.7 °F 1.8 °F 1013.1 in SSW 1.8 mph 6.1 mph 94 % 0.0 in
23:48 2.6 °F 1.7 °F 1013.1 in SW 2.7 mph 6.9 mph 94 % 0.0 in
23:53 2.6 °F 1.7 °F 1013.1 in WSW 4.5 mph 6.9 mph 94 % 0.0 in
23:58 2.6 °F 1.7 °F 1013.1 in WSW 5.0 mph 6.9 mph 94 % 0.0 in
Vremenska postaja Senovo
Podatki zbrani iz Weather Underground - 3 mb

Script developed by  Jim McMurry - jmcmurry@mwt.net Adapted for the template by  Wim van der Kuil - Leuven-Template.eu

Vremenski podatki so objavljeni na:

European Weather Network

WeatherCloud

Weather Underground

AWEKAS

HAMweather, WeatherForYou, PWS Weather

MapView

Geostik

Slovenia weather network

Oprema, ki se uporablja:

Vremenski program
Cumulus

Vremenski server
Asus

Cumulus

Asus